Time;durP1;ratioP1;P1;durP2;ratioP2;P2;SDS_P1;SDS_P2;PMS_P1;PMS_P2;Temp;Humidity;BMP_temperature;BMP_pressure;BME280_temperature;BME280_humidity;BME280_pressure;Samples;Min_cycle;Max_cycle;Signal;HPM_P1;HPM_P2
2023/12/01 00:01:15;;;;;;;13.82;8.35;;;;;;;-5.73;100.00;100496.91;5036411;28;20055;-77
2023/12/01 00:03:40;;;;;;;13.18;7.03;;;;;;;-5.78;100.00;100503.22;5052295;28;20444;-77
2023/12/01 00:06:07;;;;;;;15.77;7.35;;;;;;;-5.95;100.00;100484.94;5019108;28;20391;-77
2023/12/01 00:08:32;;;;;;;14.27;7.22;;;;;;;-5.81;100.00;100505.16;5018879;28;20041;-77
2023/12/01 00:10:58;;;;;;;15.27;7.45;;;;;;;-5.65;100.00;100498.19;5035264;28;20063;-77
2023/12/01 00:13:24;;;;;;;9.88;7.00;;;;;;;-5.45;100.00;100504.16;5019586;28;20033;-76
2023/12/01 00:15:50;;;;;;;12.75;6.72;;;;;;;-5.47;100.00;100496.41;5019522;28;20487;-77
2023/12/01 00:18:15;;;;;;;13.77;7.32;;;;;;;-5.61;100.00;100498.88;5019143;28;20395;-77
2023/12/01 00:20:43;;;;;;;10.20;6.47;;;;;;;-5.68;100.00;100505.38;5035666;28;20029;-77
2023/12/01 00:23:09;;;;;;;10.77;6.63;;;;;;;-5.65;100.00;100498.19;5035746;28;20033;-76
2023/12/01 00:25:34;;;;;;;10.43;6.72;;;;;;;-5.63;100.00;100504.22;5018770;28;20108;-76
2023/12/01 00:28:06;;;;;;;11.23;6.32;;;;;;;-5.63;100.00;100506.84;5035158;28;20168;-76
2023/12/01 00:30:38;;;;;;;8.60;5.95;;;;;;;-5.78;100.00;100503.22;5034957;28;20041;-78
2023/12/01 00:33:04;;;;;;;7.90;5.68;;;;;;;-5.87;100.00;100515.94;5035150;28;20029;-78
2023/12/01 00:35:30;;;;;;;9.73;6.40;;;;;;;-5.92;100.00;100515.34;5019057;28;20041;-78
2023/12/01 00:37:56;;;;;;;12.60;7.22;;;;;;;-5.91;100.00;100515.22;5019144;28;20029;-78
2023/12/01 00:40:22;;;;;;;18.35;6.93;;;;;;;-5.96;100.00;100514.66;5019044;28;20033;-78
2023/12/01 00:42:47;;;;;;;11.73;6.40;;;;;;;-5.94;100.00;100512.81;5022315;28;20048;-77
2023/12/01 00:45:15;;;;;;;10.45;7.50;;;;;;;-5.93;100.00;100513.66;5022342;28;20150;-77
2023/12/01 00:47:41;;;;;;;12.23;6.75;;;;;;;-5.94;100.00;100510.19;5022556;28;20040;-78
2023/12/01 00:50:07;;;;;;;12.07;7.45;;;;;;;-5.80;100.00;100510.28;5038576;28;20036;-77
2023/12/01 00:52:33;;;;;;;14.40;8.63;;;;;;;-5.66;100.00;100513.97;5038647;28;20086;-77
2023/12/01 00:54:59;;;;;;;17.20;9.10;;;;;;;-5.66;100.00;100514.84;5023331;28;20032;-77
2023/12/01 00:57:24;;;;;;;18.65;9.65;;;;;;;-5.72;100.00;100520.38;5022426;28;20383;-77
2023/12/01 00:59:51;;;;;;;13.95;8.15;;;;;;;-5.75;100.00;100516.16;5022396;28;20049;-77
2023/12/01 01:02:19;;;;;;;17.85;8.95;;;;;;;-5.68;100.00;100519.31;5022611;28;20387;-77
2023/12/01 01:04:45;;;;;;;21.65;12.23;;;;;;;-5.72;100.00;100522.16;5022159;28;20029;-78
2023/12/01 01:07:12;;;;;;;18.48;10.95;;;;;;;-5.82;100.00;100521.78;5022149;28;20455;-77
2023/12/01 01:09:38;;;;;;;15.65;10.43;;;;;;;-5.83;100.00;100523.53;5038794;28;20368;-77
2023/12/01 01:12:22;;;;;;;17.83;10.52;;;;;;;-5.88;100.00;100522.94;5022790;28;20494;-77
2023/12/01 01:14:47;;;;;;;19.45;11.23;;;;;;;-5.95;100.00;100518.09;5022660;28;20094;-77
2023/12/01 01:17:13;;;;;;;23.55;12.73;;;;;;;-5.93;100.00;100522.31;5022058;28;20467;-77
2023/12/01 01:19:39;;;;;;;29.80;16.10;;;;;;;-5.89;100.00;100515.16;5021964;28;20029;-77
2023/12/01 01:22:04;;;;;;;39.33;18.77;;;;;;;-5.89;100.00;100526.47;5021801;28;20044;-77
2023/12/01 01:24:30;;;;;;;30.60;16.45;;;;;;;-5.81;100.00;100518.25;5021732;28;20102;-77
2023/12/01 01:26:55;;;;;;;29.02;15.80;;;;;;;-5.84;100.00;100510.56;5021815;28;20463;-77
2023/12/01 01:29:21;;;;;;;25.80;12.20;;;;;;;-5.78;100.00;100516.31;5021835;28;20048;-77
2023/12/01 01:31:50;;;;;;;22.15;11.35;;;;;;;-5.73;100.00;100515.25;5022066;28;20064;-77
2023/12/01 01:34:15;;;;;;;21.55;10.73;;;;;;;-5.71;100.00;100514.25;5021529;28;20045;-77
2023/12/01 01:36:44;;;;;;;16.88;8.63;;;;;;;-5.66;100.00;100511.38;5021455;28;20146;-77
2023/12/01 01:39:11;;;;;;;14.88;7.57;;;;;;;-5.69;100.00;100508.91;5038908;28;20040;-77
2023/12/01 01:41:36;;;;;;;12.57;7.47;;;;;;;-5.82;100.00;100501.69;5021361;28;20383;-77
2023/12/01 01:44:02;;;;;;;9.95;6.35;;;;;;;-5.86;100.00;100508.00;5037840;28;20025;-77
2023/12/01 01:46:28;;;;;;;11.43;5.88;;;;;;;-6.05;100.00;100505.50;5054130;28;20063;-77
2023/12/01 01:48:55;;;;;;;10.63;6.07;;;;;;;-6.17;100.00;100511.31;5021404;28;20029;-77
2023/12/01 01:51:20;;;;;;;12.25;6.07;;;;;;;-6.17;100.00;100510.47;5054128;28;20074;-77
2023/12/01 01:53:46;;;;;;;10.23;6.57;;;;;;;-6.20;100.00;100507.09;5021579;28;20127;-77
2023/12/01 01:56:12;;;;;;;15.27;7.82;;;;;;;-6.13;100.00;100501.56;5037301;28;20493;-77
2023/12/01 01:58:39;;;;;;;12.50;6.65;;;;;;;-5.94;100.00;100502.34;5021241;28;20037;-76
2023/12/01 02:01:07;;;;;;;13.68;8.27;;;;;;;-5.88;100.00;100496.75;5053799;28;20040;-76
2023/12/01 02:03:34;;;;;;;9.30;5.43;;;;;;;-5.82;100.00;100491.22;5037503;28;20467;-76
2023/12/01 02:06:06;;;;;;;12.05;6.93;;;;;;;-5.87;100.00;100493.22;5037115;28;20463;-76
2023/12/01 02:08:33;;;;;;;11.85;6.63;;;;;;;-5.89;100.00;100502.06;5022473;28;20112;-76
2023/12/01 02:10:59;;;;;;;10.93;5.75;;;;;;;-5.95;100.00;100497.16;5053923;28;20021;-76
2023/12/01 02:13:25;;;;;;;9.55;5.75;;;;;;;-6.01;100.00;100495.69;5021008;28;20368;-76
2023/12/01 02:19:57;;;;;;;10.55;5.53;;;;;;;-6.02;100.00;100501.88;5005444;28;20065;-76
2023/12/01 02:22:34;;;;;;;10.80;4.93;;;;;;;-6.14;100.00;100499.84;5021173;28;20090;-76
2023/12/01 02:25:09;;;;;;;9.00;5.55;;;;;;;-6.39;100.00;100485.38;5022891;28;20438;-77
2023/12/01 02:28:11;;;;;;;;;;;;;;;;;;;;;
2023/12/01 02:31:36;;;;;;;;;;;;;;;;;;;;;
2023/12/01 02:34:39;;;;;;;7.35;4.50;;;;;;;-6.29;100.00;100483.16;5053126;28;20487;-78
2023/12/01 02:37:25;;;;;;;6.97;3.85;;;;;;;-6.43;100.00;100489.91;5035579;28;20041;-78
2023/12/01 02:39:50;;;;;;;5.80;4.18;;;;;;;-6.35;100.00;100499.13;5020621;28;20033;-77
2023/12/01 02:42:16;;;;;;;13.85;6.43;;;;;;;-6.34;100.00;100504.31;5021345;28;20029;-77
2023/12/01 02:44:42;;;;;;;7.75;4.78;;;;;;;-6.21;100.00;100515.03;5052989;28;20459;-77
2023/12/01 02:47:09;;;;;;;9.27;5.70;;;;;;;-6.20;100.00;100511.47;5037040;28;20029;-78
2023/12/01 02:49:35;;;;;;;7.30;4.13;;;;;;;-6.23;100.00;100501.16;5021115;28;20036;-78
2023/12/01 02:52:01;;;;;;;6.78;4.80;;;;;;;-6.25;100.00;100503.84;5020321;28;20080;-78
2023/12/01 02:54:27;;;;;;;5.00;3.22;;;;;;;-6.11;100.00;100508.41;5019961;28;20025;-78
2023/12/01 02:56:53;;;;;;;6.18;3.60;;;;;;;-6.12;100.00;100509.31;5052898;28;20040;-78
2023/12/01 02:59:18;;;;;;;8.25;3.83;;;;;;;-6.28;100.00;100511.00;5020433;28;20025;-77
2023/12/01 03:01:44;;;;;;;6.75;3.60;;;;;;;-6.45;100.00;100507.44;5036489;28;20553;-78
2023/12/01 03:04:10;;;;;;;8.00;4.10;;;;;;;-6.42;100.00;100514.28;5019398;28;20550;-77
2023/12/01 03:06:35;;;;;;;6.53;3.78;;;;;;;-6.44;100.00;100509.13;5020192;28;20109;-78
2023/12/01 03:09:01;;;;;;;7.47;4.13;;;;;;;-6.46;100.00;100510.13;5020052;28;20036;-77
2023/12/01 03:11:27;;;;;;;5.05;3.75;;;;;;;-6.53;100.00;100513.97;5019769;28;20043;-77
2023/12/01 03:13:52;;;;;;;6.45;3.72;;;;;;;-6.59;100.00;100509.00;5019915;28;20036;-78
2023/12/01 03:16:18;;;;;;;7.03;4.57;;;;;;;-6.61;100.00;100508.22;5019955;28;20120;-78
2023/12/01 03:18:44;;;;;;;6.22;3.67;;;;;;;-6.63;100.00;100501.31;5020160;28;20051;-78
2023/12/01 03:21:12;;;;;;;9.40;4.18;;;;;;;-6.65;100.00;100497.91;5019849;28;20472;-78
2023/12/01 03:23:40;;;;;;;6.57;4.97;;;;;;;-6.59;100.00;100503.78;5020125;28;20083;-78
2023/12/01 03:26:08;;;;;;;6.97;4.20;;;;;;;-6.56;100.00;100501.00;5036944;28;20395;-78
2023/12/01 03:28:34;;;;;;;8.55;4.57;;;;;;;-6.66;100.00;100500.63;5052620;28;20375;-78
2023/12/01 03:31:00;;;;;;;7.38;4.22;;;;;;;-6.47;100.00;100503.19;5052276;28;20108;-78
2023/12/01 03:33:26;;;;;;;8.52;4.65;;;;;;;-6.35;100.00;100509.59;5020043;28;20033;-77
2023/12/01 03:35:52;;;;;;;10.18;5.15;;;;;;;-6.47;100.00;100504.03;5036285;28;20055;-77
2023/12/01 03:38:17;;;;;;;13.23;5.90;;;;;;;-6.47;100.00;100516.28;5036061;28;20467;-78
2023/12/01 03:40:44;;;;;;;16.83;7.93;;;;;;;-6.53;100.00;100512.19;5019619;28;20450;-78
2023/12/01 03:43:10;;;;;;;11.90;6.88;;;;;;;-6.52;100.00;100519.09;5020057;28;20123;-78
2023/12/01 03:45:37;;;;;;;9.52;5.78;;;;;;;-6.52;100.00;100515.66;5019573;28;20120;-78
2023/12/01 03:48:03;;;;;;;13.90;7.20;;;;;;;-6.50;100.00;100506.81;5036339;28;20029;-78
2023/12/01 03:50:29;;;;;;;18.27;7.13;;;;;;;-6.36;100.00;100507.91;5052164;28;20032;-77
2023/12/01 03:52:56;;;;;;;14.30;7.88;;;;;;;-6.30;100.00;100499.75;5019595;28;20086;-77
2023/12/01 03:55:22;;;;;;;21.25;10.07;;;;;;;-6.34;100.00;100503.47;5020228;28;20060;-77
2023/12/01 03:57:47;;;;;;;14.38;7.65;;;;;;;-6.25;100.00;100508.22;5019554;28;20140;-77
2023/12/01 04:00:16;;;;;;;18.02;8.02;;;;;;;-6.33;100.00;100511.22;5052254;28;20438;-77
2023/12/01 04:02:44;;;;;;;16.90;8.82;;;;;;;-6.39;100.00;100503.69;5052282;28;20090;-78
2023/12/01 04:05:20;;;;;;;10.60;6.45;;;;;;;-6.39;100.00;100503.69;5035588;28;20052;-77
2023/12/01 04:07:46;;;;;;;15.60;6.25;;;;;;;-6.39;100.00;100506.28;5020276;28;20091;-77
2023/12/01 04:10:12;;;;;;;10.82;6.25;;;;;;;-6.41;100.00;100501.13;5019396;28;20033;-77
2023/12/01 04:12:44;;;;;;;12.38;5.25;;;;;;;-6.36;100.00;100495.69;5052320;28;20032;-77
2023/12/01 04:15:14;;;;;;;7.72;3.92;;;;;;;-6.32;100.00;100505.09;5036828;28;20395;-78
2023/12/01 04:17:44;;;;;;;7.68;3.60;;;;;;;-6.31;100.00;100504.16;5023178;28;20041;-78
2023/12/01 04:20:27;;;;;;;4.65;3.15;;;;;;;-6.43;100.00;100478.56;5023420;28;20091;-78
2023/12/01 04:22:57;;;;;;;4.72;3.28;;;;;;;-6.30;100.00;100500.59;5024233;28;20039;-77
2023/12/01 04:25:22;;;;;;;5.18;2.85;;;;;;;-6.37;100.00;100490.53;5022768;28;20033;-77
2023/12/01 04:27:50;;;;;;;6.07;2.95;;;;;;;-6.46;100.00;100497.03;5022922;28;20111;-77
2023/12/01 04:30:15;;;;;;;5.25;2.80;;;;;;;-6.50;100.00;100498.13;5022982;28;20064;-78
2023/12/01 04:32:55;;;;;;;4.82;3.10;;;;;;;-6.46;100.00;100494.44;5022950;28;20075;-77
2023/12/01 04:35:22;;;;;;;3.92;2.47;;;;;;;-6.41;100.00;100497.66;5023163;28;20102;-77
2023/12/01 04:37:47;;;;;;;6.32;3.65;;;;;;;-6.31;100.00;100498.91;5022826;28;20087;-77
2023/12/01 04:40:14;;;;;;;6.68;3.13;;;;;;;-6.24;100.00;100499.47;5022750;28;20033;-77
2023/12/01 04:42:51;;;;;;;6.63;3.67;;;;;;;-6.04;100.00;100494.09;5039402;28;20025;-77
2023/12/01 04:45:20;;;;;;;6.80;2.60;;;;;;;-5.74;100.00;100503.94;5038920;28;20032;-77
2023/12/01 04:47:51;;;;;;;4.78;2.67;;;;;;;-5.60;100.00;100503.22;5022744;28;20032;-77
2023/12/01 04:50:19;;;;;;;6.90;2.95;;;;;;;-5.43;100.00;100504.94;5055767;28;20044;-77
2023/12/01 04:52:47;;;;;;;5.18;2.20;;;;;;;-5.27;100.00;100518.09;5055603;28;20048;-77
2023/12/01 04:55:18;;;;;;;4.90;2.30;;;;;;;-5.18;100.00;100528.09;5038944;28;20033;-77
2023/12/01 04:57:45;;;;;;;3.72;2.55;;;;;;;-5.19;100.00;100510.66;5038742;28;20379;-77
2023/12/01 05:02:50;;;;;;;4.85;2.70;;;;;;;-5.09;100.00;100514.50;5039678;28;20049;-77
2023/12/01 05:05:16;;;;;;;4.68;2.85;;;;;;;-5.05;100.00;100507.31;5055120;28;20036;-77
2023/12/01 05:07:43;;;;;;;6.95;3.03;;;;;;;-5.01;100.00;100509.69;5054951;28;20514;-77
2023/12/01 05:10:14;;;;;;;7.53;3.47;;;;;;;-5.02;100.00;100497.50;5054836;28;20029;-78
2023/12/01 05:12:50;;;;;;;6.40;2.95;;;;;;;-5.04;100.00;100499.38;5039955;28;20025;-77
2023/12/01 05:15:18;;;;;;;3.70;2.75;;;;;;;-5.20;100.00;100477.53;5038516;28;20056;-77
2023/12/01 05:17:45;;;;;;;6.57;2.80;;;;;;;-5.04;100.00;100488.03;5038286;28;20430;-78
2023/12/01 05:20:15;;;;;;;4.57;2.60;;;;;;;-4.92;100.00;100503.97;5021983;28;20036;-78
2023/12/01 05:22:51;;;;;;;8.00;3.75;;;;;;;-4.73;100.00;100505.56;5022603;28;20079;-77
2023/12/01 05:25:18;;;;;;;8.52;4.10;;;;;;;-4.62;100.00;100505.81;5021711;28;20043;-77
2023/12/01 05:27:45;;;;;;;7.68;4.15;;;;;;;-4.54;100.00;100508.03;5037081;28;20079;-77
2023/12/01 05:30:15;;;;;;;6.80;3.35;;;;;;;-4.54;100.00;100503.63;5038309;28;20037;-78
2023/12/01 05:32:48;;;;;;;8.25;4.25;;;;;;;-4.55;100.00;100501.06;5037941;28;20399;-78
2023/12/01 05:35:15;;;;;;;6.88;3.92;;;;;;;-4.56;100.00;100500.22;5054688;28;20033;-78
2023/12/01 05:37:49;;;;;;;6.00;3.65;;;;;;;-4.53;100.00;100502.66;5037721;28;20079;-78
2023/12/01 05:40:20;;;;;;;9.95;4.60;;;;;;;-4.52;100.00;100501.75;5054156;28;20060;-77
2023/12/01 05:42:47;;;;;;;5.28;3.45;;;;;;;-4.52;100.00;100506.16;5054333;28;20044;-78
2023/12/01 05:45:14;;;;;;;7.28;3.45;;;;;;;-4.60;100.00;100501.34;5021320;28;20052;-77
2023/12/01 05:47:47;;;;;;;6.57;3.92;;;;;;;-4.73;100.00;100489.84;5054122;28;20028;-77
2023/12/01 05:50:14;;;;;;;11.82;4.93;;;;;;;-4.81;100.00;100484.19;5021530;28;20099;-77
2023/12/01 05:52:47;;;;;;;9.73;4.35;;;;;;;-4.97;100.00;100487.63;5054356;28;20040;-77
2023/12/01 05:55:16;;;;;;;7.77;4.63;;;;;;;-5.05;100.00;100483.72;5021268;28;20036;-77
2023/12/01 05:57:46;;;;;;;6.43;4.40;;;;;;;-5.01;100.00;100487.88;5021642;28;20411;-78
2023/12/01 06:00:17;;;;;;;11.52;4.95;;;;;;;-5.01;100.00;100486.09;5037242;28;20029;-77
2023/12/01 06:02:48;;;;;;;9.98;4.07;;;;;;;-4.99;100.00;100486.84;5037531;28;20033;-78
2023/12/01 06:05:15;;;;;;;7.75;3.83;;;;;;;-4.98;100.00;100482.44;5021466;28;20061;-77
2023/12/01 06:07:45;;;;;;;7.78;3.45;;;;;;;-5.04;100.00;100483.63;5037813;28;20091;-77
2023/12/01 06:10:12;;;;;;;5.38;3.03;;;;;;;-5.09;100.00;100486.50;5054127;28;20033;-77
2023/12/01 06:12:38;;;;;;;6.45;3.45;;;;;;;-5.18;100.00;100479.16;5053605;28;20037;-78
2023/12/01 06:15:12;;;;;;;7.05;4.05;;;;;;;-5.15;100.00;100473.72;5037412;28;20024;-78
2023/12/01 06:17:51;;;;;;;6.55;3.78;;;;;;;-5.00;100.00;100487.81;5037470;28;20495;-78
2023/12/01 06:20:22;;;;;;;8.32;4.38;;;;;;;-4.81;100.00;100499.91;5020854;28;20029;-78
2023/12/01 06:22:49;;;;;;;10.98;4.18;;;;;;;-4.65;100.00;100512.09;5053438;28;20360;-77
2023/12/01 06:25:20;;;;;;;9.25;5.82;;;;;;;-4.53;100.00;100512.31;5020557;28;20162;-77
2023/12/01 06:28:01;;;;;;;6.10;4.43;;;;;;;-4.44;100.00;100512.66;5020534;28;20601;-76
2023/12/01 06:30:28;;;;;;;8.05;4.97;;;;;;;-4.35;100.00;100506.03;5053611;28;20108;-76
2023/12/01 06:33:09;;;;;;;6.18;3.97;;;;;;;-4.29;100.00;100507.47;5053184;28;20040;-79
2023/12/01 06:35:35;;;;;;;7.18;4.03;;;;;;;-4.24;100.00;100503.66;5036929;28;20037;-76
2023/12/01 06:38:00;;;;;;;9.57;4.20;;;;;;;-4.17;100.00;100498.91;5020467;28;20044;-77
2023/12/01 06:40:26;;;;;;;7.82;4.10;;;;;;;-4.12;100.00;100496.88;5020495;28;20033;-76
2023/12/01 06:42:55;;;;;;;10.98;6.28;;;;;;;-3.92;100.00;100510.63;5052956;28;20029;-76
2023/12/01 06:45:28;;;;;;;8.85;5.45;;;;;;;-3.88;100.00;100514.75;5020167;28;20056;-76
2023/12/01 06:47:54;;;;;;;10.65;5.63;;;;;;;-3.87;100.00;100511.19;5053207;28;20095;-76
2023/12/01 06:50:32;;;;;;;8.43;5.45;;;;;;;-3.93;100.00;100515.03;5052948;28;20025;-79
2023/12/01 06:53:00;;;;;;;8.98;5.22;;;;;;;-3.91;100.00;100522.84;5020749;28;20039;-78
2023/12/01 06:55:26;;;;;;;10.55;4.65;;;;;;;-3.96;100.00;100517.00;5037631;28;20114;-79
2023/12/01 06:57:52;;;;;;;7.97;5.00;;;;;;;-3.98;100.00;100520.53;5052752;28;20479;-79
2023/12/01 07:00:29;;;;;;;8.93;4.95;;;;;;;-4.03;100.00;100519.97;5020242;28;20546;-78
2023/12/01 07:02:56;;;;;;;4.93;3.13;;;;;;;-4.03;100.00;100522.59;5038443;28;20037;-78
2023/12/01 07:06:05;;;;;;;5.68;3.17;;;;;;;-4.12;100.00;100504.75;5036063;28;20048;-78
2023/12/01 07:13:27;;;;;;;;;;;;;;;;;;;;;
2023/12/01 07:15:57;;;;;;;12.43;8.90;;;;;;;-4.07;100.00;100502.69;5015018;28;20037;-78
2023/12/01 07:18:23;;;;;;;16.73;11.48;;;;;;;-3.96;100.00;100524.88;5036321;28;20036;-78
2023/12/01 07:20:49;;;;;;;8.27;4.97;;;;;;;-4.00;100.00;100526.81;5019879;28;20075;-78
2023/12/01 07:23:17;;;;;;;9.05;4.90;;;;;;;-4.03;100.00;100527.00;5019464;28;20394;-78
2023/12/01 07:25:47;;;;;;;6.90;3.60;;;;;;;-4.06;100.00;100529.81;5035986;28;20073;-78
2023/12/01 07:28:13;;;;;;;8.10;4.85;;;;;;;-4.12;100.00;100533.63;5019710;28;20037;-78
2023/12/01 07:30:41;;;;;;;6.53;4.63;;;;;;;-4.17;100.00;100545.34;5053248;28;20485;-78
2023/12/01 07:33:08;;;;;;;7.70;4.93;;;;;;;-4.20;100.00;100534.06;5019824;28;20041;-78
2023/12/01 07:35:37;;;;;;;6.32;4.15;;;;;;;-4.17;100.00;100537.44;5019256;28;20032;-78
2023/12/01 07:38:04;;;;;;;8.13;4.15;;;;;;;-4.21;100.00;100531.50;5019830;28;20127;-78
2023/12/01 07:40:31;;;;;;;9.02;4.30;;;;;;;-4.25;100.00;100528.22;5035747;28;20033;-78
2023/12/01 07:42:57;;;;;;;7.30;3.97;;;;;;;-4.26;100.00;100528.28;5018312;28;20033;-78
2023/12/01 07:45:23;;;;;;;6.32;3.63;;;;;;;-4.37;100.00;100528.91;5051462;28;20017;-78
2023/12/01 07:47:50;;;;;;;8.77;3.80;;;;;;;-4.47;100.00;100528.59;5019508;28;20041;-78
2023/12/01 07:50:18;;;;;;;7.63;3.38;;;;;;;-4.62;100.00;100529.44;5038370;28;20029;-78
2023/12/01 07:52:50;;;;;;;6.65;4.25;;;;;;;-4.75;100.00;100545.00;5042065;28;20033;-78
2023/12/01 07:55:17;;;;;;;8.38;4.30;;;;;;;-4.75;100.00;100552.03;5058715;28;20060;-78
2023/12/01 07:57:43;;;;;;;6.13;3.97;;;;;;;-4.82;100.00;100548.03;5026095;28;20032;-78
2023/12/01 08:00:16;;;;;;;6.47;4.22;;;;;;;-4.96;100.00;100554.88;5042197;28;20029;-78
2023/12/01 08:02:47;;;;;;;7.47;3.60;;;;;;;-5.05;100.00;100544.00;5043457;28;20033;-78
2023/12/01 08:05:16;;;;;;;6.13;3.42;;;;;;;-5.09;100.00;100546.78;5041737;28;20468;-78
2023/12/01 08:07:43;;;;;;;5.90;3.38;;;;;;;-5.12;100.00;100549.59;5026332;28;20041;-78
2023/12/01 08:10:09;;;;;;;8.68;4.20;;;;;;;-5.14;100.00;100540.09;5058569;28;20154;-77
2023/12/01 08:12:35;;;;;;;6.70;3.58;;;;;;;-5.11;100.00;100537.31;5025331;28;20074;-78
2023/12/01 08:15:01;;;;;;;7.10;3.83;;;;;;;-5.22;100.00;100537.88;5058732;28;20040;-77
2023/12/01 08:17:27;;;;;;;6.05;2.95;;;;;;;-5.24;100.00;100552.00;5058487;28;20067;-77
2023/12/01 08:19:52;;;;;;;6.80;4.30;;;;;;;-5.08;100.00;100547.63;5041799;28;20523;-78
2023/12/01 08:22:18;;;;;;;6.45;4.22;;;;;;;-4.95;100.00;100561.81;5025785;28;20039;-77
2023/12/01 08:24:45;;;;;;;6.15;4.38;;;;;;;-4.91;100.00;100560.72;5025530;28;20033;-77
2023/12/01 08:27:12;;;;;;;6.72;3.42;;;;;;;-4.90;100.00;100551.06;5026245;28;20352;-78
2023/12/01 08:29:38;;;;;;;8.35;3.90;;;;;;;-4.89;100.00;100552.78;5025166;28;20037;-77
2023/12/01 08:32:04;;;;;;;6.75;3.78;;;;;;;-4.85;100.00;100556.91;5025662;28;20045;-78
2023/12/01 08:34:30;;;;;;;6.55;3.72;;;;;;;-4.80;100.00;100551.44;5058439;28;20028;-77
2023/12/01 08:36:55;;;;;;;5.53;3.65;;;;;;;-4.69;100.00;100559.56;5025688;28;20039;-77
2023/12/01 08:39:23;;;;;;;6.35;3.38;;;;;;;-4.60;100.00;100560.81;5025371;28;20045;-78
2023/12/01 08:41:53;;;;;;;5.90;3.58;;;;;;;-4.57;100.00;100561.50;5025846;28;20045;-78
2023/12/01 08:44:19;;;;;;;6.22;3.65;;;;;;;-4.52;100.00;100569.16;5025956;28;20116;-78
2023/12/01 08:46:45;;;;;;;4.30;3.28;;;;;;;-4.38;100.00;100571.00;5025316;28;20094;-78
2023/12/01 08:49:20;;;;;;;6.43;3.55;;;;;;;-4.16;100.00;100565.38;5025484;28;20399;-77
2023/12/01 08:51:46;;;;;;;4.95;3.05;;;;;;;-4.06;100.00;100559.53;5058196;28;20096;-77
2023/12/01 08:54:15;;;;;;;7.90;3.80;;;;;;;-3.98;100.00;100566.97;5025424;28;20127;-78
2023/12/01 08:56:41;;;;;;;7.63;3.90;;;;;;;-3.91;100.00;100568.31;5041580;28;20055;-78
2023/12/01 08:59:07;;;;;;;10.18;3.30;;;;;;;-3.84;100.00;100571.44;5041807;28;20386;-78
2023/12/01 09:01:40;;;;;;;11.73;2.97;;;;;;;-3.80;100.00;100565.06;5055769;28;20108;-78
2023/12/01 09:04:34;;;;;;;4.70;3.13;;;;;;;-3.73;100.00;100569.06;5026381;28;20150;-78
2023/12/01 09:07:09;;;;;;;6.43;3.55;;;;;;;-3.50;100.00;100561.59;5023624;28;20103;-77
2023/12/01 09:09:36;;;;;;;6.43;3.78;;;;;;;-3.31;100.00;100564.78;5038751;28;20041;-77
2023/12/01 09:12:01;;;;;;;5.63;3.83;;;;;;;-3.07;100.00;100567.72;5022311;28;20036;-77
2023/12/01 09:14:27;;;;;;;8.63;4.05;;;;;;;-2.87;100.00;100566.53;5022200;28;20124;-77
2023/12/01 09:16:53;;;;;;;10.18;3.72;;;;;;;-2.71;100.00;100569.88;5054770;28;20035;-77
2023/12/01 09:19:19;;;;;;;14.00;5.00;;;;;;;-2.56;100.00;100567.25;5038192;28;20025;-77
2023/12/01 09:21:45;;;;;;;10.48;3.67;;;;;;;-2.47;100.00;100566.66;5022105;28;20474;-78
2023/12/01 09:24:10;;;;;;;10.95;4.57;;;;;;;-2.44;100.00;100575.19;5054598;28;20391;-78
2023/12/01 09:26:51;;;;;;;6.72;4.30;;;;;;;-2.40;100.00;100570.63;5038155;28;20028;-77
2023/12/01 09:29:16;;;;;;;11.18;5.07;;;;;;;-2.31;100.00;100572.66;5038338;28;20017;-77
2023/12/01 09:31:46;;;;;;;13.32;5.72;;;;;;;-2.24;100.00;100573.94;5021637;28;20025;-77
2023/12/01 09:34:12;;;;;;;12.43;4.78;;;;;;;-2.22;100.00;100573.88;5037968;28;20024;-77
2023/12/01 09:36:38;;;;;;;8.50;4.28;;;;;;;-2.20;100.00;100574.59;5021688;28;20349;-77
2023/12/01 09:39:05;;;;;;;9.00;4.13;;;;;;;-2.18;100.00;100575.34;5020565;28;20372;-77
2023/12/01 09:41:33;;;;;;;7.75;4.43;;;;;;;-2.12;100.00;100585.47;5021602;28;20037;-77
2023/12/01 09:44:03;;;;;;;9.35;3.70;;;;;;;-2.09;100.00;100584.44;5053755;28;20032;-78
2023/12/01 09:46:46;;;;;;;11.18;4.25;;;;;;;-2.22;100.00;100582.59;5037857;28;20450;-78
2023/12/01 09:49:11;;;;;;;7.88;4.43;;;;;;;-2.25;100.00;100587.19;5021215;28;20037;-77
2023/12/01 09:51:43;;;;;;;7.40;4.50;;;;;;;-2.27;100.00;100589.13;5021352;28;20055;-78
2023/12/01 09:54:09;;;;;;;11.95;4.57;;;;;;;-2.23;100.00;100588.78;5054402;28;20029;-77
2023/12/01 09:56:35;;;;;;;12.85;4.40;;;;;;;-2.11;100.00;100596.88;5021308;28;20025;-77
2023/12/01 09:59:00;;;;;;;7.43;4.60;;;;;;;-2.02;100.00;100593.63;5021349;28;20033;-77
2023/12/01 10:01:29;;;;;;;9.43;5.50;;;;;;;-1.96;100.00;100597.66;5022048;28;20037;-78
2023/12/01 10:03:55;;;;;;;9.70;6.05;;;;;;;-1.92;100.00;100594.75;5021091;28;20038;-77
2023/12/01 10:06:21;;;;;;;10.10;5.38;;;;;;;-1.87;100.00;100600.56;5020864;28;20028;-77
2023/12/01 10:08:49;;;;;;;10.77;5.07;;;;;;;-1.79;100.00;100595.63;5020462;28;20367;-77
2023/12/01 10:11:25;;;;;;;7.30;4.53;;;;;;;-1.66;100.00;100595.66;5020084;28;20037;-78
2023/12/01 10:13:51;;;;;;;16.40;5.47;;;;;;;-1.46;100.00;100602.22;5020806;28;20278;-77
2023/12/01 10:16:18;;;;;;;10.48;5.35;;;;;;;-1.50;100.00;100599.94;5021011;28;20464;-77
2023/12/01 10:19:05;;;;;;;8.55;5.57;;;;;;;-1.53;100.00;100595.69;5036952;28;20028;-77
2023/12/01 10:21:43;;;;;;;9.20;5.18;;;;;;;-1.60;100.00;100591.78;5037422;28;20068;-77
2023/12/01 10:24:23;;;;;;;7.20;4.53;;;;;;;-1.61;100.00;100598.84;5036979;28;20033;-77
2023/12/01 10:26:50;;;;;;;7.18;4.35;;;;;;;-1.62;100.00;100597.13;5037524;28;20028;-77
2023/12/01 10:29:28;;;;;;;8.93;4.45;;;;;;;-1.60;100.00;100599.69;5020510;28;20547;-77
2023/12/01 10:32:14;;;;;;;9.38;6.25;;;;;;;-1.57;100.00;100604.75;5037277;28;20033;-77
2023/12/01 10:34:48;;;;;;;14.27;7.10;;;;;;;-1.56;100.00;100595.91;5020059;28;20505;-77
2023/12/01 10:37:14;;;;;;;7.57;4.88;;;;;;;-1.51;100.00;100606.97;5020675;28;20044;-77
2023/12/01 10:39:41;;;;;;;11.32;6.50;;;;;;;-1.39;100.00;100603.53;5020638;28;20130;-77
2023/12/01 10:42:07;;;;;;;10.73;6.00;;;;;;;-1.23;100.00;100605.13;5021034;28;20494;-77
2023/12/01 10:44:34;;;;;;;12.73;7.10;;;;;;;-1.05;100.00;100609.16;5019985;28;20033;-77
2023/12/01 10:47:00;;;;;;;12.52;7.97;;;;;;;-0.84;100.00;100600.72;5035771;28;20025;-77
2023/12/01 10:49:27;;;;;;;13.18;8.05;;;;;;;-0.64;100.00;100600.16;5020177;28;20082;-78
2023/12/01 10:51:55;;;;;;;15.40;9.02;;;;;;;-0.47;100.00;100606.91;5019712;28;20098;-77
2023/12/01 10:54:27;;;;;;;17.25;9.52;;;;;;;-0.27;100.00;100603.66;5052567;28;20040;-77
2023/12/01 10:57:12;;;;;;;15.38;9.82;;;;;;;-0.05;100.00;100602.97;5020161;28;20043;-77
2023/12/01 10:59:38;;;;;;;20.20;11.05;;;;;;;0.10;100.00;100608.09;5036363;28;20039;-77
2023/12/01 11:02:25;;;;;;;;;;;;;;;;;;;;;
2023/12/01 11:05:04;;;;;;;29.15;14.98;;;;;;;0.25;100.00;100603.50;5052238;28;20029;-77
2023/12/01 11:07:54;;;;;;;27.85;12.82;;;;;;;0.37;100.00;100603.44;5036358;28;20033;-77
2023/12/01 11:11:00;;;;;;;23.63;11.95;;;;;;;0.42;100.00;100606.59;5035755;28;20501;-76
2023/12/01 11:14:04;;;;;;;18.02;9.32;;;;;;;0.33;100.00;100578.16;5036639;28;20040;-77
2023/12/01 11:16:35;;;;;;;16.13;8.20;;;;;;;0.47;100.00;100587.69;5061873;28;20530;-77
2023/12/01 11:19:01;;;;;;;14.23;6.43;;;;;;;0.54;100.00;100585.44;5018995;28;20115;-77
2023/12/01 11:21:59;;;;;;;11.30;5.50;;;;;;;0.72;100.00;100584.06;5035920;28;20036;-77
2023/12/01 11:24:31;;;;;;;7.82;5.25;;;;;;;0.98;100.00;100586.50;5051382;28;20032;-77
2023/12/01 11:27:03;;;;;;;9.50;5.70;;;;;;;1.18;100.00;100577.84;5035575;28;20420;-77
2023/12/01 11:29:29;;;;;;;9.90;5.57;;;;;;;1.49;100.00;100586.06;5035907;28;20494;-77
2023/12/01 11:32:14;;;;;;;14.18;7.70;;;;;;;1.64;100.00;100584.84;5020562;28;20384;-77
2023/12/01 11:35:09;;;;;;;15.48;7.55;;;;;;;1.70;100.00;100589.63;5036637;28;20043;-76
2023/12/01 11:37:58;;;;;;;13.63;7.43;;;;;;;1.52;100.00;100586.63;5019484;28;20029;-77
2023/12/01 11:40:26;;;;;;;13.13;6.97;;;;;;;1.30;100.00;100586.66;5034502;28;20064;-77
2023/12/01 11:42:54;;;;;;;12.25;6.82;;;;;;;1.05;100.00;100574.47;5049733;28;20121;-77